sensor_id;sensor_type;location;lat;lon;timestamp;P1;durP1;ratioP1;P2;durP2;ratioP2
52740;SDS011;38634;52.138;9.912;2023-09-19T00:01:57;5.35;;;2.72;;
52740;SDS011;38634;52.138;9.912;2023-09-19T00:04:42;4.10;;;1.83;;
52740;SDS011;38634;52.138;9.912;2023-09-19T00:07:27;4.60;;;2.10;;
52740;SDS011;38634;52.138;9.912;2023-09-19T00:10:12;5.10;;;2.50;;
52740;SDS011;38634;52.138;9.912;2023-09-19T00:12:59;4.72;;;2.17;;
52740;SDS011;38634;52.138;9.912;2023-09-19T00:15:49;5.20;;;2.47;;
52740;SDS011;38634;52.138;9.912;2023-09-19T00:18:34;5.18;;;2.40;;
52740;SDS011;38634;52.138;9.912;2023-09-19T00:21:19;4.68;;;2.17;;
52740;SDS011;38634;52.138;9.912;2023-09-19T00:24:04;5.85;;;2.40;;
52740;SDS011;38634;52.138;9.912;2023-09-19T00:26:50;15.25;;;5.57;;
52740;SDS011;38634;52.138;9.912;2023-09-19T00:29:34;9.18;;;2.55;;
52740;SDS011;38634;52.138;9.912;2023-09-19T00:32:19;10.40;;;2.80;;
52740;SDS011;38634;52.138;9.912;2023-09-19T00:35:03;7.95;;;2.33;;
52740;SDS011;38634;52.138;9.912;2023-09-19T00:37:49;4.40;;;2.13;;
52740;SDS011;38634;52.138;9.912;2023-09-19T00:40:35;5.47;;;2.38;;
52740;SDS011;38634;52.138;9.912;2023-09-19T00:43:20;11.80;;;3.20;;
52740;SDS011;38634;52.138;9.912;2023-09-19T00:46:07;6.00;;;2.13;;
52740;SDS011;38634;52.138;9.912;2023-09-19T00:48:52;8.65;;;3.08;;
52740;SDS011;38634;52.138;9.912;2023-09-19T00:51:37;8.20;;;2.67;;
52740;SDS011;38634;52.138;9.912;2023-09-19T00:54:21;9.05;;;2.70;;
52740;SDS011;38634;52.138;9.912;2023-09-19T00:57:06;3.80;;;1.95;;
52740;SDS011;38634;52.138;9.912;2023-09-19T00:59:51;6.28;;;2.15;;
52740;SDS011;38634;52.138;9.912;2023-09-19T01:02:36;4.70;;;2.15;;
52740;SDS011;38634;52.138;9.912;2023-09-19T01:05:21;6.50;;;2.25;;
52740;SDS011;38634;52.138;9.912;2023-09-19T01:08:07;5.78;;;2.80;;
52740;SDS011;38634;52.138;9.912;2023-09-19T01:10:52;6.28;;;2.45;;
52740;SDS011;38634;52.138;9.912;2023-09-19T01:13:48;6.63;;;2.50;;
52740;SDS011;38634;52.138;9.912;2023-09-19T01:23:20;5.75;;;2.63;;
52740;SDS011;38634;52.138;9.912;2023-09-19T01:29:46;6.00;;;2.53;;
52740;SDS011;38634;52.138;9.912;2023-09-19T01:32:34;5.68;;;2.70;;
52740;SDS011;38634;52.138;9.912;2023-09-19T01:35:19;4.50;;;2.38;;
52740;SDS011;38634;52.138;9.912;2023-09-19T01:38:03;5.70;;;2.25;;
52740;SDS011;38634;52.138;9.912;2023-09-19T01:41:01;5.30;;;2.40;;
52740;SDS011;38634;52.138;9.912;2023-09-19T01:43:51;5.15;;;1.98;;
52740;SDS011;38634;52.138;9.912;2023-09-19T01:46:38;4.47;;;1.95;;
52740;SDS011;38634;52.138;9.912;2023-09-19T01:52:21;4.28;;;2.25;;
52740;SDS011;38634;52.138;9.912;2023-09-19T01:55:07;5.65;;;2.22;;
52740;SDS011;38634;52.138;9.912;2023-09-19T01:58:16;4.53;;;2.00;;
52740;SDS011;38634;52.138;9.912;2023-09-19T02:01:22;4.95;;;2.58;;
52740;SDS011;38634;52.138;9.912;2023-09-19T02:04:08;4.30;;;1.98;;
52740;SDS011;38634;52.138;9.912;2023-09-19T02:06:53;12.05;;;4.60;;
52740;SDS011;38634;52.138;9.912;2023-09-19T02:09:39;12.05;;;3.63;;
52740;SDS011;38634;52.138;9.912;2023-09-19T02:12:23;9.77;;;2.67;;
52740;SDS011;38634;52.138;9.912;2023-09-19T02:15:08;11.48;;;4.43;;
52740;SDS011;38634;52.138;9.912;2023-09-19T02:17:53;4.53;;;2.63;;
52740;SDS011;38634;52.138;9.912;2023-09-19T02:20:37;4.43;;;2.38;;
52740;SDS011;38634;52.138;9.912;2023-09-19T02:23:23;5.50;;;3.05;;
52740;SDS011;38634;52.138;9.912;2023-09-19T02:26:08;5.40;;;2.78;;
52740;SDS011;38634;52.138;9.912;2023-09-19T02:28:53;4.47;;;2.38;;
52740;SDS011;38634;52.138;9.912;2023-09-19T02:31:37;3.30;;;1.83;;
52740;SDS011;38634;52.138;9.912;2023-09-19T02:34:23;7.97;;;3.35;;
52740;SDS011;38634;52.138;9.912;2023-09-19T02:37:09;7.68;;;2.55;;
52740;SDS011;38634;52.138;9.912;2023-09-19T02:39:54;5.88;;;2.63;;
52740;SDS011;38634;52.138;9.912;2023-09-19T02:42:42;5.30;;;3.25;;
52740;SDS011;38634;52.138;9.912;2023-09-19T02:45:32;6.35;;;3.08;;
52740;SDS011;38634;52.138;9.912;2023-09-19T02:48:16;5.25;;;2.58;;
52740;SDS011;38634;52.138;9.912;2023-09-19T02:51:01;8.95;;;3.10;;
52740;SDS011;38634;52.138;9.912;2023-09-19T02:53:49;9.95;;;3.05;;
52740;SDS011;38634;52.138;9.912;2023-09-19T02:56:36;11.73;;;3.60;;
52740;SDS011;38634;52.138;9.912;2023-09-19T09:42:54;16.65;;;3.67;;
52740;SDS011;38634;52.138;9.912;2023-09-19T09:45:42;14.90;;;3.10;;
52740;SDS011;38634;52.138;9.912;2023-09-19T09:48:31;14.05;;;3.03;;
52740;SDS011;38634;52.138;9.912;2023-09-19T09:51:28;12.02;;;3.20;;
52740;SDS011;38634;52.138;9.912;2023-09-19T09:54:15;12.93;;;4.22;;
52740;SDS011;38634;52.138;9.912;2023-09-19T09:57:02;13.07;;;3.13;;
52740;SDS011;38634;52.138;9.912;2023-09-19T09:59:57;8.68;;;2.60;;
52740;SDS011;38634;52.138;9.912;2023-09-19T10:03:05;12.98;;;3.00;;
52740;SDS011;38634;52.138;9.912;2023-09-19T10:06:06;11.55;;;3.03;;
52740;SDS011;38634;52.138;9.912;2023-09-19T10:09:07;10.32;;;2.70;;
52740;SDS011;38634;52.138;9.912;2023-09-19T10:12:03;11.13;;;2.88;;
52740;SDS011;38634;52.138;9.912;2023-09-19T10:14:51;11.05;;;3.70;;
52740;SDS011;38634;52.138;9.912;2023-09-19T10:17:37;10.45;;;3.42;;
52740;SDS011;38634;52.138;9.912;2023-09-19T10:20:28;10.35;;;2.80;;
52740;SDS011;38634;52.138;9.912;2023-09-19T10:23:16;11.43;;;2.95;;
52740;SDS011;38634;52.138;9.912;2023-09-19T10:26:10;8.90;;;2.55;;
52740;SDS011;38634;52.138;9.912;2023-09-19T10:28:55;10.13;;;2.97;;
52740;SDS011;38634;52.138;9.912;2023-09-19T10:31:43;12.77;;;3.13;;
52740;SDS011;38634;52.138;9.912;2023-09-19T10:34:32;12.95;;;3.03;;
52740;SDS011;38634;52.138;9.912;2023-09-19T10:37:19;12.13;;;3.03;;
52740;SDS011;38634;52.138;9.912;2023-09-19T10:40:05;16.73;;;2.92;;
52740;SDS011;38634;52.138;9.912;2023-09-19T10:42:57;14.45;;;3.35;;
52740;SDS011;38634;52.138;9.912;2023-09-19T10:45:51;11.65;;;2.70;;
52740;SDS011;38634;52.138;9.912;2023-09-19T10:48:37;11.05;;;2.50;;
52740;SDS011;38634;52.138;9.912;2023-09-19T10:51:24;14.23;;;3.20;;
52740;SDS011;38634;52.138;9.912;2023-09-19T10:54:16;9.82;;;2.55;;
52740;SDS011;38634;52.138;9.912;2023-09-19T10:57:03;14.05;;;3.63;;
52740;SDS011;38634;52.138;9.912;2023-09-19T11:03:17;12.68;;;2.70;;
52740;SDS011;38634;52.138;9.912;2023-09-19T11:06:11;8.93;;;2.13;;
52740;SDS011;38634;52.138;9.912;2023-09-19T11:09:03;6.55;;;1.90;;
52740;SDS011;38634;52.138;9.912;2023-09-19T11:11:54;12.13;;;3.17;;
52740;SDS011;38634;52.138;9.912;2023-09-19T11:14:40;12.88;;;2.80;;
52740;SDS011;38634;52.138;9.912;2023-09-19T11:20:26;14.82;;;3.65;;
52740;SDS011;38634;52.138;9.912;2023-09-19T11:23:23;14.05;;;2.95;;
52740;SDS011;38634;52.138;9.912;2023-09-19T11:26:10;11.60;;;2.38;;
52740;SDS011;38634;52.138;9.912;2023-09-19T11:29:33;12.48;;;2.65;;
52740;SDS011;38634;52.138;9.912;2023-09-19T11:32:27;12.57;;;2.92;;
52740;SDS011;38634;52.138;9.912;2023-09-19T11:36:08;12.43;;;2.90;;
52740;SDS011;38634;52.138;9.912;2023-09-19T11:41:40;13.10;;;3.17;;
52740;SDS011;38634;52.138;9.912;2023-09-19T11:44:32;12.25;;;2.75;;
52740;SDS011;38634;52.138;9.912;2023-09-19T11:47:18;11.60;;;2.70;;
52740;SDS011;38634;52.138;9.912;2023-09-19T11:50:03;15.68;;;3.72;;
52740;SDS011;38634;52.138;9.912;2023-09-19T11:52:49;13.57;;;3.15;;
52740;SDS011;38634;52.138;9.912;2023-09-19T11:55:35;9.80;;;2.53;;
52740;SDS011;38634;52.138;9.912;2023-09-19T11:58:22;12.38;;;2.80;;
52740;SDS011;38634;52.138;9.912;2023-09-19T12:01:08;12.73;;;3.65;;
52740;SDS011;38634;52.138;9.912;2023-09-19T12:03:58;12.13;;;2.67;;
52740;SDS011;38634;52.138;9.912;2023-09-19T12:06:45;18.08;;;5.72;;
52740;SDS011;38634;52.138;9.912;2023-09-19T12:09:45;13.98;;;3.10;;
52740;SDS011;38634;52.138;9.912;2023-09-19T12:12:32;12.32;;;2.72;;
52740;SDS011;38634;52.138;9.912;2023-09-19T12:15:23;13.80;;;3.28;;
52740;SDS011;38634;52.138;9.912;2023-09-19T12:21:27;13.82;;;3.17;;
52740;SDS011;38634;52.138;9.912;2023-09-19T12:24:16;11.65;;;2.60;;
52740;SDS011;38634;52.138;9.912;2023-09-19T12:27:04;12.90;;;3.72;;
52740;SDS011;38634;52.138;9.912;2023-09-19T12:29:50;17.52;;;4.55;;
52740;SDS011;38634;52.138;9.912;2023-09-19T12:32:39;34.55;;;7.78;;
52740;SDS011;38634;52.138;9.912;2023-09-19T12:35:40;18.23;;;4.50;;
52740;SDS011;38634;52.138;9.912;2023-09-19T12:38:27;29.70;;;6.32;;
52740;SDS011;38634;52.138;9.912;2023-09-19T12:41:12;15.15;;;4.47;;
52740;SDS011;38634;52.138;9.912;2023-09-19T12:43:56;17.08;;;3.97;;
52740;SDS011;38634;52.138;9.912;2023-09-19T12:46:42;33.22;;;6.57;;
52740;SDS011;38634;52.138;9.912;2023-09-19T12:49:27;31.63;;;6.90;;
52740;SDS011;38634;52.138;9.912;2023-09-19T12:52:12;14.63;;;4.00;;
52740;SDS011;38634;52.138;9.912;2023-09-19T12:54:57;12.40;;;3.65;;
52740;SDS011;38634;52.138;9.912;2023-09-19T12:57:56;24.73;;;5.85;;
52740;SDS011;38634;52.138;9.912;2023-09-19T13:00:49;32.08;;;7.15;;
52740;SDS011;38634;52.138;9.912;2023-09-19T13:03:35;37.38;;;7.90;;
52740;SDS011;38634;52.138;9.912;2023-09-19T13:06:34;13.25;;;3.60;;
52740;SDS011;38634;52.138;9.912;2023-09-19T13:09:23;35.67;;;7.53;;
52740;SDS011;38634;52.138;9.912;2023-09-19T13:12:35;33.47;;;7.15;;
52740;SDS011;38634;52.138;9.912;2023-09-19T13:15:22;16.65;;;4.68;;
52740;SDS011;38634;52.138;9.912;2023-09-19T13:18:28;37.40;;;7.57;;
52740;SDS011;38634;52.138;9.912;2023-09-19T13:21:17;24.75;;;5.38;;
52740;SDS011;38634;52.138;9.912;2023-09-19T13:24:20;12.23;;;2.75;;
52740;SDS011;38634;52.138;9.912;2023-09-19T13:27:11;35.53;;;8.07;;
52740;SDS011;38634;52.138;9.912;2023-09-19T13:29:56;12.35;;;3.80;;
52740;SDS011;38634;52.138;9.912;2023-09-19T13:32:45;11.32;;;3.15;;
52740;SDS011;38634;52.138;9.912;2023-09-19T13:35:37;27.48;;;6.22;;
52740;SDS011;38634;52.138;9.912;2023-09-19T13:38:24;11.45;;;3.40;;
52740;SDS011;38634;52.138;9.912;2023-09-19T13:41:09;22.27;;;5.90;;
52740;SDS011;38634;52.138;9.912;2023-09-19T13:43:54;33.33;;;7.40;;
52740;SDS011;38634;52.138;9.912;2023-09-19T13:46:40;19.65;;;5.22;;
52740;SDS011;38634;52.138;9.912;2023-09-19T13:49:29;24.75;;;5.88;;
52740;SDS011;38634;52.138;9.912;2023-09-19T13:52:16;28.83;;;7.05;;
52740;SDS011;38634;52.138;9.912;2023-09-19T13:55:01;28.17;;;6.68;;
52740;SDS011;38634;52.138;9.912;2023-09-19T13:57:48;17.48;;;5.35;;
52740;SDS011;38634;52.138;9.912;2023-09-19T14:00:39;34.33;;;8.35;;
52740;SDS011;38634;52.138;9.912;2023-09-19T14:03:24;27.83;;;6.28;;
52740;SDS011;38634;52.138;9.912;2023-09-19T14:06:12;21.70;;;6.03;;
52740;SDS011;38634;52.138;9.912;2023-09-19T14:08:57;35.53;;;7.70;;
52740;SDS011;38634;52.138;9.912;2023-09-19T14:11:42;34.63;;;8.20;;
52740;SDS011;38634;52.138;9.912;2023-09-19T14:14:29;13.27;;;3.88;;
52740;SDS011;38634;52.138;9.912;2023-09-19T14:17:14;17.63;;;5.72;;
52740;SDS011;38634;52.138;9.912;2023-09-19T14:19:59;19.10;;;5.20;;
52740;SDS011;38634;52.138;9.912;2023-09-19T14:22:43;16.90;;;4.50;;
52740;SDS011;38634;52.138;9.912;2023-09-19T14:25:28;17.38;;;5.25;;
52740;SDS011;38634;52.138;9.912;2023-09-19T14:28:13;19.45;;;5.57;;
52740;SDS011;38634;52.138;9.912;2023-09-19T14:30:58;18.95;;;4.93;;
52740;SDS011;38634;52.138;9.912;2023-09-19T14:33:54;21.23;;;5.47;;
52740;SDS011;38634;52.138;9.912;2023-09-19T14:36:43;20.45;;;5.78;;
52740;SDS011;38634;52.138;9.912;2023-09-19T14:39:27;21.35;;;5.35;;
52740;SDS011;38634;52.138;9.912;2023-09-19T14:42:13;19.05;;;4.88;;
52740;SDS011;38634;52.138;9.912;2023-09-19T14:45:01;21.27;;;5.30;;
52740;SDS011;38634;52.138;9.912;2023-09-19T14:47:47;16.70;;;4.85;;
52740;SDS011;38634;52.138;9.912;2023-09-19T14:50:32;19.13;;;4.82;;
52740;SDS011;38634;52.138;9.912;2023-09-19T14:53:16;16.23;;;4.13;;
52740;SDS011;38634;52.138;9.912;2023-09-19T14:56:01;20.10;;;4.90;;
52740;SDS011;38634;52.138;9.912;2023-09-19T14:58:46;14.82;;;4.63;;
52740;SDS011;38634;52.138;9.912;2023-09-19T15:01:31;22.60;;;5.55;;
52740;SDS011;38634;52.138;9.912;2023-09-19T15:04:15;17.90;;;4.70;;
52740;SDS011;38634;52.138;9.912;2023-09-19T15:07:00;18.90;;;5.47;;
52740;SDS011;38634;52.138;9.912;2023-09-19T15:09:46;20.15;;;5.15;;
52740;SDS011;38634;52.138;9.912;2023-09-19T15:12:31;19.45;;;5.03;;
52740;SDS011;38634;52.138;9.912;2023-09-19T15:15:16;18.23;;;5.10;;
52740;SDS011;38634;52.138;9.912;2023-09-19T15:18:01;20.02;;;5.75;;
52740;SDS011;38634;52.138;9.912;2023-09-19T15:20:45;21.75;;;5.60;;
52740;SDS011;38634;52.138;9.912;2023-09-19T15:23:31;18.80;;;5.47;;
52740;SDS011;38634;52.138;9.912;2023-09-19T15:26:17;15.45;;;4.63;;
52740;SDS011;38634;52.138;9.912;2023-09-19T15:29:05;21.70;;;6.18;;
52740;SDS011;38634;52.138;9.912;2023-09-19T15:31:51;23.95;;;6.63;;
52740;SDS011;38634;52.138;9.912;2023-09-19T15:34:35;18.48;;;5.43;;
52740;SDS011;38634;52.138;9.912;2023-09-19T15:37:23;22.05;;;6.18;;
52740;SDS011;38634;52.138;9.912;2023-09-19T15:40:09;32.10;;;6.07;;
52740;SDS011;38634;52.138;9.912;2023-09-19T15:42:56;20.48;;;4.55;;
52740;SDS011;38634;52.138;9.912;2023-09-19T15:45:41;32.13;;;7.70;;
52740;SDS011;38634;52.138;9.912;2023-09-19T15:48:25;35.88;;;7.68;;
52740;SDS011;38634;52.138;9.912;2023-09-19T15:51:10;30.90;;;6.25;;
52740;SDS011;38634;52.138;9.912;2023-09-19T15:53:55;20.27;;;5.30;;
52740;SDS011;38634;52.138;9.912;2023-09-19T15:56:41;33.33;;;7.40;;
52740;SDS011;38634;52.138;9.912;2023-09-19T15:59:27;38.38;;;7.85;;
52740;SDS011;38634;52.138;9.912;2023-09-19T16:02:13;22.80;;;5.75;;
52740;SDS011;38634;52.138;9.912;2023-09-19T16:04:58;20.92;;;5.63;;
52740;SDS011;38634;52.138;9.912;2023-09-19T16:07:43;34.28;;;6.85;;
52740;SDS011;38634;52.138;9.912;2023-09-19T16:10:27;35.80;;;7.55;;
52740;SDS011;38634;52.138;9.912;2023-09-19T16:13:13;23.02;;;5.75;;
52740;SDS011;38634;52.138;9.912;2023-09-19T16:15:57;20.52;;;5.45;;
52740;SDS011;38634;52.138;9.912;2023-09-19T16:18:49;32.05;;;6.80;;
52740;SDS011;38634;52.138;9.912;2023-09-19T16:21:36;29.92;;;6.35;;
52740;SDS011;38634;52.138;9.912;2023-09-19T16:24:21;20.33;;;4.82;;
52740;SDS011;38634;52.138;9.912;2023-09-19T16:27:06;40.33;;;8.77;;
52740;SDS011;38634;52.138;9.912;2023-09-19T16:29:51;41.50;;;9.30;;
52740;SDS011;38634;52.138;9.912;2023-09-19T16:32:36;27.95;;;6.45;;
52740;SDS011;38634;52.138;9.912;2023-09-19T16:35:20;19.50;;;5.38;;
52740;SDS011;38634;52.138;9.912;2023-09-19T16:38:05;28.67;;;6.57;;
52740;SDS011;38634;52.138;9.912;2023-09-19T16:40:56;36.53;;;8.02;;
52740;SDS011;38634;52.138;9.912;2023-09-19T16:43:42;21.70;;;5.07;;
52740;SDS011;38634;52.138;9.912;2023-09-19T16:46:26;21.40;;;5.22;;
52740;SDS011;38634;52.138;9.912;2023-09-19T16:49:11;46.85;;;9.52;;
52740;SDS011;38634;52.138;9.912;2023-09-19T16:51:56;37.45;;;7.40;;
52740;SDS011;38634;52.138;9.912;2023-09-19T16:54:40;17.63;;;4.80;;
52740;SDS011;38634;52.138;9.912;2023-09-19T16:57:25;22.30;;;5.40;;
52740;SDS011;38634;52.138;9.912;2023-09-19T17:00:10;40.97;;;7.97;;
52740;SDS011;38634;52.138;9.912;2023-09-19T17:02:58;35.22;;;7.88;;
52740;SDS011;38634;52.138;9.912;2023-09-19T17:05:44;16.13;;;4.53;;
52740;SDS011;38634;52.138;9.912;2023-09-19T17:08:30;29.98;;;6.45;;
52740;SDS011;38634;52.138;9.912;2023-09-19T17:11:15;38.60;;;8.13;;
52740;SDS011;38634;52.138;9.912;2023-09-19T17:14:01;26.08;;;5.93;;
52740;SDS011;38634;52.138;9.912;2023-09-19T17:16:47;24.40;;;8.73;;
52740;SDS011;38634;52.138;9.912;2023-09-19T17:19:32;25.52;;;7.40;;
52740;SDS011;38634;52.138;9.912;2023-09-19T17:22:19;45.60;;;9.25;;
52740;SDS011;38634;52.138;9.912;2023-09-19T17:25:04;32.38;;;7.47;;
52740;SDS011;38634;52.138;9.912;2023-09-19T17:27:51;14.90;;;4.68;;
52740;SDS011;38634;52.138;9.912;2023-09-19T17:30:36;16.25;;;3.90;;
52740;SDS011;38634;52.138;9.912;2023-09-19T17:33:23;15.00;;;3.65;;
52740;SDS011;38634;52.138;9.912;2023-09-19T17:36:12;9.65;;;2.78;;
52740;SDS011;38634;52.138;9.912;2023-09-19T17:39:07;7.70;;;2.60;;
52740;SDS011;38634;52.138;9.912;2023-09-19T17:41:53;9.35;;;3.50;;
52740;SDS011;38634;52.138;9.912;2023-09-19T17:44:38;5.03;;;2.13;;
52740;SDS011;38634;52.138;9.912;2023-09-19T17:47:23;7.45;;;2.83;;
52740;SDS011;38634;52.138;9.912;2023-09-19T17:50:08;5.80;;;2.38;;
52740;SDS011;38634;52.138;9.912;2023-09-19T17:52:57;9.38;;;3.15;;
52740;SDS011;38634;52.138;9.912;2023-09-19T17:55:43;7.10;;;3.05;;
52740;SDS011;38634;52.138;9.912;2023-09-19T17:58:27;4.85;;;2.50;;
52740;SDS011;38634;52.138;9.912;2023-09-19T18:01:13;6.53;;;2.50;;
52740;SDS011;38634;52.138;9.912;2023-09-19T18:03:59;6.13;;;2.33;;
52740;SDS011;38634;52.138;9.912;2023-09-19T18:06:45;7.97;;;3.38;;
52740;SDS011;38634;52.138;9.912;2023-09-19T18:09:32;11.20;;;3.28;;
52740;SDS011;38634;52.138;9.912;2023-09-19T18:12:17;7.85;;;3.53;;
52740;SDS011;38634;52.138;9.912;2023-09-19T18:15:02;9.63;;;3.35;;
52740;SDS011;38634;52.138;9.912;2023-09-19T18:17:47;7.05;;;2.67;;
52740;SDS011;38634;52.138;9.912;2023-09-19T18:20:35;7.68;;;3.67;;
52740;SDS011;38634;52.138;9.912;2023-09-19T18:23:23;11.35;;;5.55;;
52740;SDS011;38634;52.138;9.912;2023-09-19T18:26:08;11.80;;;5.35;;
52740;SDS011;38634;52.138;9.912;2023-09-19T18:28:53;10.35;;;3.22;;
52740;SDS011;38634;52.138;9.912;2023-09-19T18:31:37;6.95;;;2.97;;
52740;SDS011;38634;52.138;9.912;2023-09-19T18:34:22;13.38;;;3.20;;
52740;SDS011;38634;52.138;9.912;2023-09-19T18:37:06;13.20;;;2.80;;
52740;SDS011;38634;52.138;9.912;2023-09-19T18:39:54;14.77;;;3.65;;
52740;SDS011;38634;52.138;9.912;2023-09-19T18:42:38;8.75;;;2.70;;
52740;SDS011;38634;52.138;9.912;2023-09-19T18:45:24;8.02;;;2.85;;
52740;SDS011;38634;52.138;9.912;2023-09-19T18:48:09;7.78;;;2.72;;
52740;SDS011;38634;52.138;9.912;2023-09-19T18:50:56;6.78;;;2.28;;
52740;SDS011;38634;52.138;9.912;2023-09-19T18:53:40;9.82;;;2.80;;
52740;SDS011;38634;52.138;9.912;2023-09-19T18:56:26;8.00;;;2.50;;
52740;SDS011;38634;52.138;9.912;2023-09-19T18:59:11;8.48;;;2.72;;
52740;SDS011;38634;52.138;9.912;2023-09-19T19:01:57;8.85;;;2.38;;
52740;SDS011;38634;52.138;9.912;2023-09-19T19:04:41;9.40;;;3.70;;
52740;SDS011;38634;52.138;9.912;2023-09-19T19:07:26;8.07;;;3.00;;
52740;SDS011;38634;52.138;9.912;2023-09-19T19:10:10;6.93;;;2.50;;
52740;SDS011;38634;52.138;9.912;2023-09-19T19:12:57;7.65;;;2.58;;
52740;SDS011;38634;52.138;9.912;2023-09-19T19:15:43;9.80;;;2.88;;
52740;SDS011;38634;52.138;9.912;2023-09-19T19:18:28;7.10;;;2.42;;
52740;SDS011;38634;52.138;9.912;2023-09-19T19:21:14;7.40;;;2.63;;
52740;SDS011;38634;52.138;9.912;2023-09-19T19:23:59;13.50;;;2.88;;
52740;SDS011;38634;52.138;9.912;2023-09-19T19:26:44;12.70;;;3.78;;
52740;SDS011;38634;52.138;9.912;2023-09-19T19:29:29;4.40;;;2.10;;
52740;SDS011;38634;52.138;9.912;2023-09-19T19:32:13;9.48;;;3.15;;
52740;SDS011;38634;52.138;9.912;2023-09-19T19:34:58;7.97;;;2.55;;
52740;SDS011;38634;52.138;9.912;2023-09-19T19:37:43;6.95;;;3.80;;
52740;SDS011;38634;52.138;9.912;2023-09-19T19:40:27;9.07;;;3.58;;
52740;SDS011;38634;52.138;9.912;2023-09-19T19:43:12;6.57;;;2.90;;
52740;SDS011;38634;52.138;9.912;2023-09-19T19:45:57;7.28;;;2.50;;
52740;SDS011;38634;52.138;9.912;2023-09-19T19:48:47;10.35;;;2.95;;
52740;SDS011;38634;52.138;9.912;2023-09-19T19:51:37;7.30;;;2.33;;
52740;SDS011;38634;52.138;9.912;2023-09-19T19:54:22;11.40;;;2.92;;
52740;SDS011;38634;52.138;9.912;2023-09-19T19:57:06;7.53;;;2.42;;
52740;SDS011;38634;52.138;9.912;2023-09-19T19:59:51;10.90;;;4.68;;
52740;SDS011;38634;52.138;9.912;2023-09-19T20:02:38;8.32;;;3.97;;
52740;SDS011;38634;52.138;9.912;2023-09-19T20:05:22;7.10;;;2.72;;
52740;SDS011;38634;52.138;9.912;2023-09-19T20:08:07;7.85;;;3.10;;
52740;SDS011;38634;52.138;9.912;2023-09-19T20:11:02;8.45;;;3.10;;
52740;SDS011;38634;52.138;9.912;2023-09-19T20:13:48;8.60;;;2.47;;
52740;SDS011;38634;52.138;9.912;2023-09-19T20:16:33;8.90;;;3.20;;
52740;SDS011;38634;52.138;9.912;2023-09-19T20:19:20;4.85;;;2.60;;
52740;SDS011;38634;52.138;9.912;2023-09-19T20:22:04;5.90;;;2.75;;
52740;SDS011;38634;52.138;9.912;2023-09-19T20:24:54;3.95;;;2.30;;
52740;SDS011;38634;52.138;9.912;2023-09-19T20:27:39;5.55;;;2.40;;
52740;SDS011;38634;52.138;9.912;2023-09-19T20:30:24;4.93;;;2.28;;
52740;SDS011;38634;52.138;9.912;2023-09-19T20:33:09;4.38;;;2.10;;
52740;SDS011;38634;52.138;9.912;2023-09-19T20:35:57;5.70;;;2.25;;
52740;SDS011;38634;52.138;9.912;2023-09-19T20:38:43;4.70;;;1.80;;
52740;SDS011;38634;52.138;9.912;2023-09-19T20:41:31;7.20;;;2.55;;
52740;SDS011;38634;52.138;9.912;2023-09-19T20:44:15;9.27;;;3.08;;
52740;SDS011;38634;52.138;9.912;2023-09-19T20:47:01;3.90;;;2.33;;
52740;SDS011;38634;52.138;9.912;2023-09-19T20:49:46;5.93;;;2.22;;
52740;SDS011;38634;52.138;9.912;2023-09-19T20:52:31;8.38;;;3.22;;
52740;SDS011;38634;52.138;9.912;2023-09-19T20:55:19;7.65;;;2.88;;
52740;SDS011;38634;52.138;9.912;2023-09-19T20:58:04;5.03;;;2.30;;
52740;SDS011;38634;52.138;9.912;2023-09-19T21:00:49;4.78;;;2.15;;
52740;SDS011;38634;52.138;9.912;2023-09-19T21:03:34;5.40;;;2.45;;
52740;SDS011;38634;52.138;9.912;2023-09-19T21:06:20;5.50;;;2.30;;
52740;SDS011;38634;52.138;9.912;2023-09-19T21:09:05;5.63;;;2.63;;
52740;SDS011;38634;52.138;9.912;2023-09-19T21:11:51;5.70;;;2.28;;
52740;SDS011;38634;52.138;9.912;2023-09-19T21:14:36;9.00;;;2.70;;
52740;SDS011;38634;52.138;9.912;2023-09-19T21:17:21;6.72;;;3.05;;
52740;SDS011;38634;52.138;9.912;2023-09-19T21:20:06;10.15;;;6.00;;
52740;SDS011;38634;52.138;9.912;2023-09-19T21:22:52;8.35;;;4.47;;
52740;SDS011;38634;52.138;9.912;2023-09-19T21:25:40;5.07;;;2.60;;
52740;SDS011;38634;52.138;9.912;2023-09-19T21:28:25;10.38;;;3.75;;
52740;SDS011;38634;52.138;9.912;2023-09-19T21:31:11;11.23;;;3.08;;
52740;SDS011;38634;52.138;9.912;2023-09-19T21:33:58;10.27;;;2.75;;
52740;SDS011;38634;52.138;9.912;2023-09-19T21:36:43;16.63;;;4.32;;
52740;SDS011;38634;52.138;9.912;2023-09-19T21:39:28;7.10;;;2.13;;
52740;SDS011;38634;52.138;9.912;2023-09-19T21:42:13;11.05;;;2.92;;
52740;SDS011;38634;52.138;9.912;2023-09-19T21:44:57;9.32;;;2.83;;
52740;SDS011;38634;52.138;9.912;2023-09-19T21:47:42;11.20;;;2.75;;
52740;SDS011;38634;52.138;9.912;2023-09-19T21:50:27;4.93;;;2.38;;
52740;SDS011;38634;52.138;9.912;2023-09-19T21:53:14;8.80;;;2.50;;
52740;SDS011;38634;52.138;9.912;2023-09-19T21:55:59;4.35;;;2.00;;
52740;SDS011;38634;52.138;9.912;2023-09-19T21:58:45;6.65;;;2.75;;
52740;SDS011;38634;52.138;9.912;2023-09-19T22:01:31;7.63;;;2.80;;
52740;SDS011;38634;52.138;9.912;2023-09-19T22:04:16;5.40;;;3.42;;
52740;SDS011;38634;52.138;9.912;2023-09-19T22:07:01;9.52;;;8.00;;
52740;SDS011;38634;52.138;9.912;2023-09-19T22:09:46;5.45;;;4.18;;
52740;SDS011;38634;52.138;9.912;2023-09-19T22:12:30;5.60;;;3.00;;
52740;SDS011;38634;52.138;9.912;2023-09-19T22:15:16;4.80;;;2.10;;
52740;SDS011;38634;52.138;9.912;2023-09-19T22:18:00;5.70;;;3.20;;
52740;SDS011;38634;52.138;9.912;2023-09-19T22:20:49;3.65;;;1.73;;
52740;SDS011;38634;52.138;9.912;2023-09-19T22:23:36;4.47;;;2.10;;
52740;SDS011;38634;52.138;9.912;2023-09-19T22:26:25;4.43;;;2.25;;
52740;SDS011;38634;52.138;9.912;2023-09-19T22:29:09;6.88;;;2.90;;
52740;SDS011;38634;52.138;9.912;2023-09-19T22:31:54;7.60;;;2.58;;
52740;SDS011;38634;52.138;9.912;2023-09-19T22:34:38;5.22;;;1.92;;
52740;SDS011;38634;52.138;9.912;2023-09-19T22:37:24;6.28;;;2.65;;
52740;SDS011;38634;52.138;9.912;2023-09-19T22:40:09;8.27;;;2.47;;
52740;SDS011;38634;52.138;9.912;2023-09-19T22:43:09;8.40;;;2.67;;
52740;SDS011;38634;52.138;9.912;2023-09-19T22:45:56;5.78;;;2.33;;
52740;SDS011;38634;52.138;9.912;2023-09-19T22:48:41;6.65;;;2.78;;
52740;SDS011;38634;52.138;9.912;2023-09-19T22:51:26;3.95;;;2.03;;
52740;SDS011;38634;52.138;9.912;2023-09-19T22:54:19;6.38;;;2.50;;
52740;SDS011;38634;52.138;9.912;2023-09-19T22:57:11;5.72;;;2.67;;
52740;SDS011;38634;52.138;9.912;2023-09-19T22:59:58;11.75;;;2.97;;
52740;SDS011;38634;52.138;9.912;2023-09-19T23:02:43;11.20;;;2.95;;
52740;SDS011;38634;52.138;9.912;2023-09-19T23:05:37;11.68;;;2.72;;
52740;SDS011;38634;52.138;9.912;2023-09-19T23:08:29;8.25;;;2.45;;
52740;SDS011;38634;52.138;9.912;2023-09-19T23:11:14;9.68;;;2.90;;
52740;SDS011;38634;52.138;9.912;2023-09-19T23:14:02;9.98;;;2.78;;
52740;SDS011;38634;52.138;9.912;2023-09-19T23:16:47;15.52;;;5.45;;
52740;SDS011;38634;52.138;9.912;2023-09-19T23:19:36;9.20;;;2.45;;
52740;SDS011;38634;52.138;9.912;2023-09-19T23:22:32;14.32;;;3.38;;
52740;SDS011;38634;52.138;9.912;2023-09-19T23:25:20;12.23;;;3.13;;
52740;SDS011;38634;52.138;9.912;2023-09-19T23:28:18;22.55;;;3.97;;
52740;SDS011;38634;52.138;9.912;2023-09-19T23:31:07;7.20;;;2.30;;
52740;SDS011;38634;52.138;9.912;2023-09-19T23:33:53;13.80;;;3.30;;
52740;SDS011;38634;52.138;9.912;2023-09-19T23:36:38;12.18;;;3.25;;
52740;SDS011;38634;52.138;9.912;2023-09-19T23:39:23;14.60;;;3.28;;
52740;SDS011;38634;52.138;9.912;2023-09-19T23:42:09;11.40;;;2.60;;
52740;SDS011;38634;52.138;9.912;2023-09-19T23:44:56;10.77;;;2.50;;
52740;SDS011;38634;52.138;9.912;2023-09-19T23:47:40;14.98;;;4.43;;
52740;SDS011;38634;52.138;9.912;2023-09-19T23:50:26;11.25;;;2.90;;